createdAt,value
2023-04-16T00:00:25.966Z,44.98
2023-04-16T00:05:27.743Z,46.36
2023-04-16T00:10:29.545Z,46.31
2023-04-16T00:15:31.357Z,45.25
2023-04-16T00:20:35.316Z,45.60
2023-04-16T00:25:37.105Z,45.92
2023-04-16T00:30:38.884Z,45.00
2023-04-16T00:35:40.862Z,44.80
2023-04-16T00:40:43.770Z,44.16
2023-04-16T00:45:45.966Z,46.19
2023-04-16T00:50:48.649Z,44.30
2023-04-16T00:55:51.034Z,45.42
2023-04-16T01:00:52.945Z,46.32
2023-04-16T01:05:55.777Z,45.50
2023-04-16T01:10:57.662Z,44.45
2023-04-16T01:16:00.884Z,45.04
2023-04-16T01:21:04.021Z,44.11
2023-04-16T01:26:06.019Z,44.11
2023-04-16T01:31:07.932Z,44.21
2023-04-16T01:36:21.530Z,43.62
2023-04-16T01:41:23.561Z,43.26
2023-04-16T01:46:31.905Z,42.86
2023-04-16T01:51:33.984Z,42.89
2023-04-16T01:56:35.837Z,42.85
2023-04-16T02:01:38.160Z,42.94
2023-04-16T02:06:40.044Z,43.27
2023-04-16T02:11:41.869Z,42.86
2023-04-16T02:16:43.800Z,43.27
2023-04-16T02:22:04.373Z,43.34
2023-04-16T02:27:06.491Z,43.90
2023-04-16T02:32:08.588Z,43.59
2023-04-16T02:37:11.348Z,43.52
2023-04-16T02:42:14.349Z,44.04
2023-04-16T02:47:16.294Z,47.45
2023-04-16T02:52:18.144Z,48.55
2023-04-16T02:57:20.163Z,51.77
2023-04-16T03:02:22.138Z,50.23
2023-04-16T03:07:24.113Z,48.70
2023-04-16T03:12:26.047Z,50.27
2023-04-16T03:17:27.944Z,49.61
2023-04-16T03:22:30.729Z,48.33
2023-04-16T03:27:33.084Z,46.58
2023-04-16T03:32:35.003Z,57.51
2023-04-16T03:37:41.641Z,53.66
2023-04-16T03:42:44.145Z,50.85
2023-04-16T03:47:48.625Z,50.86
2023-04-16T03:52:50.542Z,49.17
2023-04-16T03:57:53.924Z,48.05
2023-04-16T04:02:56.167Z,47.14
2023-04-16T04:07:58.665Z,47.17
2023-04-16T04:13:01.707Z,46.87
2023-04-16T04:18:03.790Z,46.81
2023-04-16T04:23:05.816Z,45.37
2023-04-16T04:28:07.778Z,45.39
2023-04-16T04:33:09.673Z,46.33
2023-04-16T04:38:15.589Z,45.69
2023-04-16T04:43:19.052Z,46.45
2023-04-16T04:48:26.230Z,46.02
2023-04-16T04:53:28.321Z,45.55
2023-04-16T04:58:30.349Z,44.91
2023-04-16T05:03:32.460Z,44.52
2023-04-16T05:08:34.289Z,44.81
2023-04-16T05:13:36.180Z,44.94
2023-04-16T05:18:37.945Z,44.92
2023-04-16T05:23:39.685Z,45.31
2023-04-16T05:28:41.442Z,45.13
2023-04-16T05:33:43.308Z,44.57
2023-04-16T05:38:45.221Z,45.06
2023-04-16T05:43:47.022Z,46.12
2023-04-16T05:48:48.942Z,44.81
2023-04-16T05:53:50.854Z,44.53
2023-04-16T05:58:52.666Z,44.27
2023-04-16T06:03:54.714Z,44.19
2023-04-16T06:08:56.674Z,43.94
2023-04-16T06:13:58.532Z,43.81
2023-04-16T06:19:00.409Z,43.39
2023-04-16T06:24:02.552Z,44.40
2023-04-16T06:29:04.721Z,44.52
2023-04-16T06:34:06.504Z,44.08
2023-04-16T06:39:08.657Z,43.50
2023-04-16T06:44:10.707Z,43.15
2023-04-16T06:49:12.919Z,44.34
2023-04-16T06:54:14.795Z,44.26
2023-04-16T06:59:17.001Z,44.03
2023-04-16T07:04:18.910Z,43.73
2023-04-16T07:09:21.026Z,44.02
2023-04-16T07:14:23.106Z,44.00
2023-04-16T07:19:24.998Z,43.33
2023-04-16T07:24:27.323Z,43.82
2023-04-16T07:29:29.067Z,43.90
2023-04-16T07:34:31.111Z,44.05
2023-04-16T07:39:32.861Z,44.50
2023-04-16T07:44:34.610Z,45.13
2023-04-16T07:49:36.465Z,43.08
2023-04-16T07:54:38.243Z,45.54
2023-04-16T07:59:40.233Z,49.43
2023-04-16T08:04:42.900Z,46.66
2023-04-16T08:09:49.700Z,46.00
2023-04-16T08:14:51.603Z,48.74
2023-04-16T08:19:53.469Z,54.48
2023-04-16T08:24:56.729Z,56.38
2023-04-16T08:29:58.592Z,54.25
2023-04-16T08:35:00.598Z,52.18
2023-04-16T08:40:03.505Z,49.79
2023-04-16T08:45:18.827Z,54.62
2023-04-16T08:50:25.023Z,51.15
2023-04-16T08:55:35.559Z,51.29
2023-04-16T09:00:39.418Z,50.05
2023-04-16T09:05:42.681Z,50.90
2023-04-16T09:10:44.469Z,56.17
2023-04-16T09:15:46.542Z,56.67
2023-04-16T09:20:51.916Z,50.32
2023-04-16T09:25:53.995Z,50.60
2023-04-16T09:31:17.500Z,63.08
2023-04-16T09:36:23.151Z,62.94
2023-04-16T09:41:27.648Z,63.29
2023-04-16T09:46:30.788Z,65.58
2023-04-16T09:51:44.349Z,62.93
2023-04-16T09:56:47.068Z,65.16
2023-04-16T10:01:50.384Z,68.04
2023-04-16T10:07:06.307Z,62.31
2023-04-16T10:12:08.703Z,64.87
2023-04-16T10:17:10.708Z,65.53
2023-04-16T10:22:12.903Z,63.36
2023-04-16T10:27:14.718Z,67.84
2023-04-16T10:32:18.587Z,68.82
2023-04-16T10:37:30.008Z,65.03
2023-04-16T10:42:31.897Z,58.36
2023-04-16T10:47:40.768Z,63.14
2023-04-16T10:52:42.724Z,63.45
2023-04-16T10:57:49.601Z,57.94
2023-04-16T11:02:54.812Z,61.33
2023-04-16T11:08:13.521Z,62.82
2023-04-16T11:13:16.949Z,61.51
2023-04-16T11:18:21.867Z,65.20
2023-04-16T11:23:23.752Z,60.13
2023-04-16T11:28:35.902Z,61.45
2023-04-16T11:33:38.069Z,57.20
2023-04-16T11:38:43.183Z,55.17
2023-04-16T11:43:45.135Z,55.47
2023-04-16T11:48:51.117Z,52.41
2023-04-16T11:53:54.304Z,49.99
2023-04-16T11:59:25.586Z,48.18
2023-04-16T12:04:27.997Z,52.04
2023-04-16T12:09:29.859Z,55.45
2023-04-16T12:14:32.141Z,55.37
2023-04-16T12:19:47.765Z,56.84
2023-04-16T12:24:49.563Z,55.89
2023-04-16T12:30:07.387Z,52.00
2023-04-16T12:35:12.594Z,53.92
2023-04-16T12:40:14.352Z,57.19
2023-04-16T12:45:16.127Z,53.99
2023-04-16T12:50:18.388Z,53.35
2023-04-16T12:55:20.522Z,50.23
2023-04-16T13:00:22.651Z,47.92
2023-04-16T13:05:24.440Z,52.65
2023-04-16T13:10:27.827Z,52.98
2023-04-16T13:15:29.664Z,53.87
2023-04-16T13:20:31.478Z,54.72
2023-04-16T13:25:33.331Z,50.74
2023-04-16T13:30:35.205Z,50.41
2023-04-16T13:35:37.312Z,53.76
2023-04-16T13:40:39.106Z,53.68
2023-04-16T13:45:41.533Z,53.90
2023-04-16T13:50:43.846Z,51.73
2023-04-16T13:55:45.868Z,50.87
2023-04-16T14:00:47.782Z,50.70
2023-04-16T14:05:49.626Z,51.06
2023-04-16T14:10:51.753Z,50.61
2023-04-16T14:15:54.829Z,50.25
2023-04-16T14:20:56.738Z,52.06
2023-04-16T14:25:58.793Z,51.12
2023-04-16T14:31:00.620Z,51.69
2023-04-16T14:36:03.450Z,46.69
2023-04-16T14:41:05.531Z,49.27
2023-04-16T14:46:07.472Z,49.65
2023-04-16T14:51:09.548Z,50.10
2023-04-16T14:56:12.981Z,47.14
2023-04-16T15:01:15.043Z,51.68
2023-04-16T15:06:17.067Z,49.05
2023-04-16T15:11:19.106Z,50.87
2023-04-16T15:16:21.431Z,50.74
2023-04-16T15:21:23.370Z,50.26
2023-04-16T15:26:26.026Z,50.56
2023-04-16T15:31:27.958Z,47.90
2023-04-16T15:36:29.978Z,50.86
2023-04-16T15:41:32.002Z,49.95
2023-04-16T15:46:33.918Z,51.21
2023-04-16T15:51:36.191Z,48.78
2023-04-16T15:56:38.236Z,46.93
2023-04-16T16:01:40.203Z,49.73
2023-04-16T16:06:42.465Z,49.54
2023-04-16T16:11:44.473Z,46.53
2023-04-16T16:16:46.402Z,47.68
2023-04-16T16:21:48.375Z,42.05
2023-04-16T16:26:50.341Z,40.12
2023-04-16T16:31:52.335Z,38.96
2023-04-16T16:36:54.210Z,41.39
2023-04-16T16:41:56.893Z,38.63
2023-04-16T16:46:58.892Z,36.85
2023-04-16T16:52:00.957Z,38.80
2023-04-16T16:57:03.360Z,38.99
2023-04-16T17:02:05.783Z,36.88
2023-04-16T17:07:07.701Z,37.45
2023-04-16T17:12:09.535Z,36.64
2023-04-16T17:17:11.362Z,37.10
2023-04-16T17:22:13.328Z,37.03
2023-04-16T17:27:15.153Z,36.02
2023-04-16T17:32:17.081Z,37.31
2023-04-16T17:37:18.941Z,37.89
2023-04-16T17:42:20.789Z,38.77
2023-04-16T17:47:22.684Z,38.11
2023-04-16T17:52:24.505Z,37.24
2023-04-16T17:57:27.263Z,38.74
2023-04-16T18:02:29.192Z,38.86
2023-04-16T18:07:32.513Z,40.45
2023-04-16T18:12:34.444Z,40.47
2023-04-16T18:17:36.405Z,39.14
2023-04-16T18:22:38.249Z,40.34
2023-04-16T18:27:40.020Z,42.08
2023-04-16T18:32:59.882Z,40.81
2023-04-16T18:38:03.692Z,39.80
2023-04-16T18:43:05.718Z,38.96
2023-04-16T18:48:07.531Z,40.28
2023-04-16T18:53:09.391Z,38.87
2023-04-16T18:58:11.641Z,38.76
2023-04-16T19:03:13.571Z,39.42
2023-04-16T19:08:15.418Z,42.71
2023-04-16T19:13:17.163Z,40.97
2023-04-16T19:18:18.987Z,39.19
2023-04-16T19:23:21.202Z,37.82
2023-04-16T19:28:23.802Z,38.03
2023-04-16T19:33:25.770Z,37.97
2023-04-16T19:38:27.740Z,37.43
2023-04-16T19:43:31.056Z,36.98
2023-04-16T19:48:33.010Z,38.16
2023-04-16T19:53:34.881Z,37.71
2023-04-16T19:58:36.818Z,37.11
2023-04-16T20:03:38.899Z,37.90
2023-04-16T20:08:40.887Z,36.88
2023-04-16T20:13:43.216Z,37.59
2023-04-16T20:18:46.169Z,37.50
2023-04-16T20:23:48.162Z,38.53
2023-04-16T20:28:49.987Z,38.39
2023-04-16T20:33:51.767Z,41.58
2023-04-16T20:38:53.987Z,40.56
2023-04-16T20:43:56.063Z,40.18
2023-04-16T20:48:57.923Z,44.14
2023-04-16T20:53:59.692Z,44.35
2023-04-16T20:59:01.595Z,46.38
2023-04-16T21:04:03.645Z,46.04
2023-04-16T21:09:06.070Z,46.33
2023-04-16T21:14:07.937Z,50.81
2023-04-16T21:19:10.054Z,47.03
2023-04-16T21:24:12.090Z,48.87
2023-04-16T21:29:13.950Z,45.91
2023-04-16T21:34:16.032Z,45.40
2023-04-16T21:39:19.797Z,43.97
2023-04-16T21:44:21.607Z,46.32
2023-04-16T21:49:23.455Z,46.40
2023-04-16T21:54:25.489Z,44.68
2023-04-16T21:59:27.412Z,43.20
2023-04-16T22:04:37.284Z,47.70
2023-04-16T22:09:39.106Z,44.90
2023-04-16T22:14:49.227Z,43.33
2023-04-16T22:20:00.701Z,47.52
2023-04-16T22:25:03.420Z,44.08
2023-04-16T22:30:07.403Z,45.99
2023-04-16T22:35:09.540Z,47.46
2023-04-16T22:40:11.956Z,50.95
2023-04-16T22:45:13.917Z,53.78
2023-04-16T22:50:16.102Z,49.42
2023-04-16T22:55:18.060Z,46.27
2023-04-16T23:00:20.860Z,47.18
2023-04-16T23:05:22.675Z,45.46
2023-04-16T23:10:24.509Z,43.56
2023-04-16T23:15:26.398Z,42.16
2023-04-16T23:20:29.057Z,41.92
2023-04-16T23:25:31.065Z,41.52
2023-04-16T23:30:32.859Z,41.78
2023-04-16T23:35:34.716Z,45.28
2023-04-16T23:40:36.472Z,42.94
2023-04-16T23:45:38.220Z,44.34
2023-04-16T23:50:40.038Z,43.05
2023-04-16T23:55:41.811Z,42.87
